Oberon — SKJF — position and weather

sailwx.info

Track history (hours):
 
Tides and Currents Weather Stations Pressure Air Temp Water Temp Dewpoint Dewpoint Depression Visibility Wind Speed Wind Dir Waves Ship Positions

Oberon

Last reported at 2016-May-25 14:22 UTC. Time now 2016-May-26 22:35 UTC.
Position S 25°43' E 153°35'.

Length 232 m; draft 8.1 m.

Type: Cargo ship. MMSI: 266283000.

Date/timePositionNaut miles runAvg speedWind from/ knotsBaromVisibWave heightAir tempDewpointWater temp
2016-May-25 14:22S 25°43' E 153°35'1215.4
2016-May-25 13:34S 25°55' E 153°31'1715.5
2016-May-25 12:28S 26°11' E 153°25'1415.6
2016-May-25 11:33S 26°24' E 153°20'1615.7
2016-May-25 10:33S 26°39' E 153°14'1413.7
2016-May-25 09:33S 26°52' E 153°10'1616.1
2016-May-25 08:33S 27°06' E 153°19'1413.9
2016-May-25 07:33S 27°18' E 153°13'5 5.0
2016-May-25 06:33S 27°23' E 153°10'0 0.0
2016-May-25 05:31S 27°23' E 153°10'0 0.0
2016-May-25 04:31S 27°23' E 153°10'0 0.0
2016-May-25 03:31S 27°23' E 153°10'0 0.0
2016-May-25 02:31S 27°23' E 153°10'0 0.0
2016-May-25 01:31S 27°23' E 153°10'0 0.0
2016-May-25 00:31S 27°23' E 153°10'4 4.2
2016-May-24 23:33S 27°19' E 153°12'1515.4
2016-May-24 22:33S 27°05' E 153°19'1817.7
2016-May-24 21:34S 26°50' E 153°09'8 8.1
2016-May-24 20:31S 26°46' E 153°17'1313.7
2016-May-24 19:34S 26°52' E 153°30'1312.4
2016-May-24 18:30S 27°02' E 153°40'1313.7
2016-May-24 17:33S 27°15' E 153°41'1413.6
2016-May-24 16:33S 27°29' E 153°43'1413.9
2016-May-24 15:33S 27°42' E 153°45'1413.7
2016-May-24 14:33S 27°56' E 153°47'27614.4
2016-May-23 19:22S 32°28' E 152°55'1215.2
2016-May-23 18:33S 32°38' E 152°47'1714.7
2016-May-23 17:26S 32°51' E 152°35'1315.3
2016-May-23 16:33S 33°02' E 152°25'1515.3
2016-May-23 15:33S 33°14' E 152°14'99 3.1
2016-May-22 07:06S 34°27' E 150°54'3 5.6
2016-May-22 06:34S 34°26' E 150°57'1010.4
2016-May-22 05:33S 34°35' E 151°02'1514.5
2016-May-22 04:33S 34°49' E 151°00'1514.6
2016-May-22 03:33S 35°04' E 150°57'18313.1
2016-May-21 13:33S 37°57' E 149°44'1514.9
2016-May-21 12:33S 38°05' E 149°28'1514.6
2016-May-21 11:33S 38°13' E 149°12'1515.0
2016-May-21 10:33S 38°22' E 148°57'1515.1
2016-May-21 09:33S 38°31' E 148°41'1515.1
2016-May-21 08:33S 38°40' E 148°26'1615.5
2016-May-21 07:33S 38°48' E 148°09'1615.9
2016-May-21 06:33S 38°54' E 147°50'1616.1
2016-May-21 05:33S 38°59' E 147°30'1616.4
2016-May-21 04:33S 39°05' E 147°10'1616.0
2016-May-21 03:33S 39°11' E 146°51'1615.9
2016-May-21 02:33S 39°17' E 146°32'1515.4
2016-May-21 01:33S 39°16' E 146°12'1615.9
2016-May-21 00:33S 39°07' E 145°55'1615.9
2016-May-20 23:33S 38°58' E 145°38'1615.9
2016-May-20 22:33S 38°49' E 145°22'1615.9
2016-May-20 21:33S 38°40' E 145°05'1615.7
2016-May-20 20:33S 38°32' E 144°48'1615.6
2016-May-20 19:33S 38°20' E 144°34'  
2016-May-18 07:30S 38°49' E 142°38'1917.0
2016-May-18 06:23S 38°46' E 142°14'1517.2
2016-May-18 05:33S 38°44' E 141°56'  
Track history (hours):
 
Tides and Currents Weather Stations Pressure Air Temp Water Temp Dewpoint Dewpoint Depression Visibility Wind Speed Wind Dir Waves Ship Positions

Oberon

Last reported at 2016-May-25 14:22 UTC. Time now 2016-May-26 22:35 UTC.
Position S 25°43' E 153°35'.

Length 232 m; draft 8.1 m.

Type: Cargo ship. MMSI: 266283000.

Date/timePositionNaut miles runAvg speedWind from/ knotsBaromVisibWave heightAir tempDewpointWater temp
2016-May-25 14:22S 25°43' E 153°35'1215.4
2016-May-25 13:34S 25°55' E 153°31'1715.5
2016-May-25 12:28S 26°11' E 153°25'1415.6
2016-May-25 11:33S 26°24' E 153°20'1615.7
2016-May-25 10:33S 26°39' E 153°14'1413.7
2016-May-25 09:33S 26°52' E 153°10'1616.1
2016-May-25 08:33S 27°06' E 153°19'1413.9
2016-May-25 07:33S 27°18' E 153°13'5 5.0
2016-May-25 06:33S 27°23' E 153°10'0 0.0
2016-May-25 05:31S 27°23' E 153°10'0 0.0
2016-May-25 04:31S 27°23' E 153°10'0 0.0
2016-May-25 03:31S 27°23' E 153°10'0 0.0
2016-May-25 02:31S 27°23' E 153°10'0 0.0
2016-May-25 01:31S 27°23' E 153°10'0 0.0
2016-May-25 00:31S 27°23' E 153°10'4 4.2
2016-May-24 23:33S 27°19' E 153°12'1515.4
2016-May-24 22:33S 27°05' E 153°19'1817.7
2016-May-24 21:34S 26°50' E 153°09'8 8.1
2016-May-24 20:31S 26°46' E 153°17'1313.7
2016-May-24 19:34S 26°52' E 153°30'1312.4
2016-May-24 18:30S 27°02' E 153°40'1313.7
2016-May-24 17:33S 27°15' E 153°41'1413.6
2016-May-24 16:33S 27°29' E 153°43'1413.9
2016-May-24 15:33S 27°42' E 153°45'1413.7
2016-May-24 14:33S 27°56' E 153°47'27614.4
2016-May-23 19:22S 32°28' E 152°55'1215.2
2016-May-23 18:33S 32°38' E 152°47'1714.7
2016-May-23 17:26S 32°51' E 152°35'1315.3
2016-May-23 16:33S 33°02' E 152°25'1515.3
2016-May-23 15:33S 33°14' E 152°14'99 3.1
2016-May-22 07:06S 34°27' E 150°54'3 5.6
2016-May-22 06:34S 34°26' E 150°57'1010.4
2016-May-22 05:33S 34°35' E 151°02'1514.5
2016-May-22 04:33S 34°49' E 151°00'1514.6
2016-May-22 03:33S 35°04' E 150°57'18313.1
2016-May-21 13:33S 37°57' E 149°44'1514.9
2016-May-21 12:33S 38°05' E 149°28'1514.6
2016-May-21 11:33S 38°13' E 149°12'1515.0
2016-May-21 10:33S 38°22' E 148°57'1515.1
2016-May-21 09:33S 38°31' E 148°41'1515.1
2016-May-21 08:33S 38°40' E 148°26'1615.5
2016-May-21 07:33S 38°48' E 148°09'1615.9
2016-May-21 06:33S 38°54' E 147°50'1616.1
2016-May-21 05:33S 38°59' E 147°30'1616.4
2016-May-21 04:33S 39°05' E 147°10'1616.0
2016-May-21 03:33S 39°11' E 146°51'1615.9
2016-May-21 02:33S 39°17' E 146°32'1515.4
2016-May-21 01:33S 39°16' E 146°12'1615.9
2016-May-21 00:33S 39°07' E 145°55'1615.9
2016-May-20 23:33S 38°58' E 145°38'1615.9
2016-May-20 22:33S 38°49' E 145°22'1615.9
2016-May-20 21:33S 38°40' E 145°05'1615.7
2016-May-20 20:33S 38°32' E 144°48'1615.6
2016-May-20 19:33S 38°20' E 144°34'  
2016-May-18 07:30S 38°49' E 142°38'1917.0
2016-May-18 06:23S 38°46' E 142°14'1517.2
2016-May-18 05:33S 38°44' E 141°56'  

Dump ship's entire track history